createdAt,value
2018-05-11T00:02:20.584Z,8.03
2018-05-11T00:04:48.038Z,7.00
2018-05-11T00:07:15.492Z,8.27
2018-05-11T00:09:42.940Z,6.97
2018-05-11T00:12:10.393Z,8.50
2018-05-11T00:14:38.617Z,9.20
2018-05-11T00:17:06.081Z,7.27
2018-05-11T00:19:33.542Z,7.70
2018-05-11T00:22:00.989Z,8.00
2018-05-11T00:24:28.436Z,7.50
2018-05-11T00:26:55.881Z,8.40
2018-05-11T00:29:23.340Z,8.00
2018-05-11T00:31:50.794Z,8.50
2018-05-11T00:34:18.265Z,8.60
2018-05-11T00:36:45.708Z,8.33
2018-05-11T00:39:13.169Z,9.73
2018-05-11T00:41:40.624Z,7.43
2018-05-11T00:44:08.069Z,8.67
2018-05-11T00:46:35.532Z,7.70
2018-05-11T00:49:02.980Z,11.00
2018-05-11T00:51:30.445Z,9.73
2018-05-11T00:53:57.887Z,10.17
2018-05-11T00:56:25.347Z,10.60
2018-05-11T00:58:52.795Z,10.90
2018-05-11T01:01:20.256Z,10.63
2018-05-11T01:03:47.709Z,13.80
2018-05-11T01:06:15.924Z,11.30
2018-05-11T01:08:43.385Z,11.30
2018-05-11T01:11:10.840Z,10.77
2018-05-11T01:13:38.283Z,12.10
2018-05-11T01:16:06.509Z,13.70
2018-05-11T01:18:33.965Z,10.93
2018-05-11T01:21:01.424Z,10.00
2018-05-11T01:23:28.876Z,10.27
2018-05-11T01:25:56.340Z,10.40
2018-05-11T01:28:23.788Z,8.93
2018-05-11T01:30:51.228Z,9.60
2018-05-11T01:33:18.676Z,9.83
2018-05-11T01:35:46.136Z,9.43
2018-05-11T01:38:13.588Z,9.67
2018-05-11T01:40:41.043Z,9.10
2018-05-11T01:43:08.488Z,8.00
2018-05-11T01:45:35.940Z,8.77
2018-05-11T01:48:03.394Z,10.50
2018-05-11T01:50:30.853Z,8.90
2018-05-11T01:52:58.302Z,9.47
2018-05-11T01:55:25.755Z,9.70
2018-05-11T01:57:53.217Z,8.60
2018-05-11T02:00:20.663Z,8.73
2018-05-11T02:02:48.104Z,8.30
2018-05-11T02:05:16.348Z,9.30
2018-05-11T02:07:43.792Z,9.37
2018-05-11T02:10:11.252Z,8.70
2018-05-11T02:12:38.688Z,8.90
2018-05-11T02:15:06.141Z,8.27
2018-05-11T02:17:33.597Z,8.70
2018-05-11T02:20:01.075Z,8.37
2018-05-11T02:22:28.520Z,8.67
2018-05-11T02:24:55.967Z,8.43
2018-05-11T02:27:23.423Z,8.73
2018-05-11T02:29:50.854Z,8.23
2018-05-11T02:32:18.315Z,7.83
2018-05-11T02:34:45.759Z,10.30
2018-05-11T02:37:13.972Z,9.33
2018-05-11T02:39:41.428Z,9.83
2018-05-11T02:42:09.648Z,9.90
2018-05-11T02:44:37.091Z,9.20
2018-05-11T02:47:04.548Z,10.43
2018-05-11T02:49:31.996Z,11.20
2018-05-11T02:51:59.447Z,9.23
2018-05-11T02:54:26.891Z,11.17
2018-05-11T02:56:54.343Z,10.20
2018-05-11T02:59:21.795Z,11.93
2018-05-11T03:01:49.250Z,13.77
2018-05-11T03:04:16.702Z,10.50
2018-05-11T03:06:44.171Z,10.97
2018-05-11T03:09:11.612Z,10.90
2018-05-11T03:11:39.063Z,12.07
2018-05-11T03:14:06.507Z,10.10
2018-05-11T03:16:34.727Z,11.20
2018-05-11T03:19:02.176Z,10.00
2018-05-11T03:21:30.395Z,11.97
2018-05-11T03:23:58.598Z,10.10
2018-05-11T03:26:26.051Z,10.97
2018-05-11T03:28:53.498Z,9.60
2018-05-11T03:31:21.708Z,9.67
2018-05-11T03:33:49.156Z,10.00
2018-05-11T03:36:16.602Z,9.80
2018-05-11T03:38:44.043Z,9.27
2018-05-11T03:41:12.267Z,9.17
2018-05-11T03:43:39.726Z,10.50
2018-05-11T03:46:07.163Z,9.20
2018-05-11T03:48:34.607Z,8.60
2018-05-11T03:51:02.068Z,8.67
2018-05-11T03:53:29.522Z,8.40
2018-05-11T03:55:56.984Z,8.47
2018-05-11T03:58:24.431Z,8.67
2018-05-11T04:00:51.883Z,9.40
2018-05-11T04:03:31.222Z,8.43
2018-05-11T04:06:06.337Z,8.90
2018-05-11T04:08:44.038Z,7.63
2018-05-11T04:11:12.251Z,8.53
2018-05-11T04:13:39.692Z,8.03
2018-05-11T04:16:07.971Z,8.57
2018-05-11T04:18:35.400Z,9.20
2018-05-11T04:21:03.611Z,9.07
2018-05-11T04:23:31.051Z,7.40
2018-05-11T04:25:58.500Z,7.87
2018-05-11T04:28:25.956Z,6.40
2018-05-11T04:30:53.404Z,5.90
2018-05-11T04:33:21.643Z,7.17
2018-05-11T04:35:49.089Z,5.80
2018-05-11T04:38:16.543Z,6.47
2018-05-11T04:40:43.985Z,6.73
2018-05-11T04:43:11.438Z,5.80
2018-05-11T04:45:38.896Z,5.60
2018-05-11T04:48:06.356Z,5.50
2018-05-11T04:50:34.591Z,6.30
2018-05-11T04:53:02.827Z,6.33
2018-05-11T04:55:30.285Z,5.47
2018-05-11T04:57:57.737Z,4.77
2018-05-11T05:00:25.199Z,5.40
2018-05-11T05:02:52.681Z,5.57
2018-05-11T05:05:20.144Z,4.90
2018-05-11T05:07:57.564Z,4.70
2018-05-11T05:10:25.008Z,5.13
2018-05-11T05:12:53.243Z,4.90
2018-05-11T05:15:20.697Z,4.90
2018-05-11T05:17:48.169Z,6.07
2018-05-11T05:20:15.650Z,5.03
2018-05-11T05:22:43.909Z,5.30
2018-05-11T05:25:11.370Z,5.00
2018-05-11T05:27:38.820Z,3.63
2018-05-11T05:30:06.275Z,4.60
2018-05-11T05:32:33.757Z,4.57
2018-05-11T05:35:01.982Z,5.00
2018-05-11T05:37:29.441Z,4.60
2018-05-11T05:39:56.896Z,4.50
2018-05-11T05:42:24.361Z,3.80
2018-05-11T05:44:51.805Z,5.00
2018-05-11T05:47:19.261Z,3.90
2018-05-11T05:49:46.737Z,4.33
2018-05-11T05:52:14.205Z,3.77
2018-05-11T05:54:41.924Z,3.77
2018-05-11T05:57:09.383Z,4.73
2018-05-11T05:59:36.829Z,4.00
2018-05-11T06:02:04.281Z,4.30
2018-05-11T06:04:31.821Z,4.30
2018-05-11T06:06:59.214Z,5.07
2018-05-11T06:09:26.699Z,4.50
2018-05-11T06:11:54.186Z,4.80
2018-05-11T06:14:22.407Z,4.63
2018-05-11T06:16:49.854Z,6.40
2018-05-11T06:19:17.315Z,6.70
2018-05-11T06:21:45.540Z,5.33
2018-05-11T06:24:13.780Z,6.20
2018-05-11T06:26:41.219Z,5.23
2018-05-11T06:29:08.680Z,6.07
2018-05-11T06:31:36.144Z,6.90
2018-05-11T06:34:03.597Z,6.37
2018-05-11T06:36:31.065Z,7.20
2018-05-11T06:38:58.524Z,7.33
2018-05-11T06:41:25.994Z,6.87
2018-05-11T06:43:53.462Z,6.97
2018-05-11T06:46:20.916Z,7.73
2018-05-11T06:48:48.380Z,7.27
2018-05-11T06:51:15.827Z,7.13
2018-05-11T06:53:43.300Z,6.90
2018-05-11T06:56:10.757Z,7.67
2018-05-11T06:58:38.217Z,8.40
2018-05-11T07:01:05.668Z,8.00
2018-05-11T07:03:33.144Z,8.97
2018-05-11T07:06:01.564Z,8.00
2018-05-11T07:08:29.041Z,7.47
2018-05-11T07:10:57.505Z,7.17
2018-05-11T07:13:25.006Z,7.70
2018-05-11T07:15:52.491Z,8.20
2018-05-11T07:18:19.976Z,9.47
2018-05-11T07:20:47.424Z,8.47
2018-05-11T07:23:14.882Z,8.13
2018-05-11T07:25:42.395Z,9.20
2018-05-11T07:28:09.839Z,8.90
2018-05-11T07:30:38.071Z,7.90
2018-05-11T07:33:05.522Z,8.93
2018-05-11T07:35:33.158Z,10.03
2018-05-11T07:38:01.396Z,10.07
2018-05-11T07:40:28.878Z,8.80
2018-05-11T07:42:57.111Z,9.70
2018-05-11T07:45:24.609Z,9.73
2018-05-11T07:47:52.094Z,9.17
2018-05-11T07:50:19.577Z,9.20
2018-05-11T07:52:47.045Z,9.13
2018-05-11T07:55:14.499Z,9.57
2018-05-11T07:57:41.964Z,8.80
2018-05-11T08:00:09.445Z,7.90
2018-05-11T08:02:36.909Z,9.53
2018-05-11T08:05:04.368Z,9.10
2018-05-11T08:07:32.591Z,8.30
2018-05-11T08:10:00.046Z,8.00
2018-05-11T08:12:27.498Z,7.67
2018-05-11T08:14:54.956Z,7.00
2018-05-11T08:17:22.398Z,8.27
2018-05-11T08:19:49.859Z,9.40
2018-05-11T08:22:17.309Z,8.27
2018-05-11T08:24:45.531Z,7.63
2018-05-11T08:27:12.977Z,7.43
2018-05-11T08:29:40.440Z,8.00
2018-05-11T08:32:07.888Z,7.40
2018-05-11T08:34:35.327Z,6.90
2018-05-11T08:37:02.779Z,8.30
2018-05-11T08:39:30.236Z,7.80
2018-05-11T08:41:57.682Z,8.80
2018-05-11T08:44:25.131Z,8.70
2018-05-11T08:46:53.339Z,8.20
2018-05-11T08:49:20.791Z,8.33
2018-05-11T08:51:48.234Z,9.40
2018-05-11T08:54:15.678Z,9.00
2018-05-11T08:56:43.115Z,9.30
2018-05-11T08:59:11.330Z,8.47
2018-05-11T09:01:38.796Z,9.40
2018-05-11T09:04:06.240Z,9.40
2018-05-11T09:06:33.670Z,9.73
2018-05-11T09:09:01.895Z,7.77
2018-05-11T09:11:29.361Z,8.30
2018-05-11T09:13:56.837Z,8.90
2018-05-11T09:16:24.293Z,9.00
2018-05-11T09:18:51.736Z,7.70
2018-05-11T09:21:19.194Z,7.47
2018-05-11T09:23:46.656Z,7.57
2018-05-11T09:26:14.106Z,7.50
2018-05-11T09:28:41.588Z,7.07
2018-05-11T09:31:09.114Z,6.83
2018-05-11T09:33:36.567Z,7.10
2018-05-11T09:36:04.022Z,7.70
2018-05-11T09:38:31.488Z,7.87
2018-05-11T09:40:58.933Z,7.20
2018-05-11T09:43:26.375Z,6.37
2018-05-11T09:45:53.856Z,6.00
2018-05-11T09:48:21.327Z,7.47
2018-05-11T09:50:48.773Z,7.77
2018-05-11T09:53:16.223Z,7.20
2018-05-11T09:55:43.685Z,7.70
2018-05-11T09:58:11.144Z,8.90
2018-05-11T10:00:38.600Z,7.83
2018-05-11T10:03:06.049Z,8.13
2018-05-11T10:05:33.492Z,7.80
2018-05-11T10:08:00.944Z,7.80
2018-05-11T10:10:28.407Z,7.30
2018-05-11T10:12:55.870Z,8.30
2018-05-11T10:15:23.340Z,7.90
2018-05-11T10:17:50.785Z,7.13
2018-05-11T10:20:18.239Z,6.80
2018-05-11T10:22:45.691Z,6.77
2018-05-11T10:25:13.143Z,7.80
2018-05-11T10:27:40.617Z,7.30
2018-05-11T10:30:08.100Z,7.63
2018-05-11T10:32:35.532Z,5.60
2018-05-11T10:35:02.974Z,5.60
2018-05-11T10:37:30.412Z,5.80
2018-05-11T10:39:57.943Z,6.63
2018-05-11T10:42:26.063Z,6.57
2018-05-11T10:44:53.521Z,7.23
2018-05-11T10:47:20.981Z,6.97
2018-05-11T10:49:49.199Z,7.00
2018-05-11T10:52:16.668Z,8.47
2018-05-11T10:54:44.883Z,8.00
2018-05-11T10:57:12.341Z,8.60
2018-05-11T10:59:39.801Z,9.17
2018-05-11T11:02:07.257Z,7.90
2018-05-11T11:04:34.800Z,6.03
2018-05-11T11:07:02.240Z,7.00
2018-05-11T11:09:30.467Z,7.57
2018-05-11T11:11:57.917Z,8.33
2018-05-11T11:14:25.376Z,7.97
2018-05-11T11:16:52.824Z,6.27
2018-05-11T11:19:21.149Z,7.50
2018-05-11T11:21:48.597Z,7.50
2018-05-11T11:24:16.052Z,6.90
2018-05-11T11:26:43.505Z,7.10
2018-05-11T11:29:10.958Z,8.33
2018-05-11T11:31:38.406Z,7.33
2018-05-11T11:34:05.853Z,7.37
2018-05-11T11:36:33.300Z,7.50
2018-05-11T11:39:00.748Z,7.60
2018-05-11T11:41:28.189Z,7.63
2018-05-11T11:43:55.676Z,7.50
2018-05-11T11:46:23.142Z,7.63
2018-05-11T11:48:50.600Z,6.87
2018-05-11T11:51:18.053Z,7.60
2018-05-11T11:53:45.491Z,7.53
2018-05-11T11:56:13.032Z,8.07
2018-05-11T11:58:41.303Z,6.50
2018-05-11T12:01:09.253Z,7.53
2018-05-11T12:03:37.472Z,7.30
2018-05-11T12:06:04.935Z,7.90
2018-05-11T12:08:32.389Z,8.77
2018-05-11T12:10:59.836Z,8.87
2018-05-11T12:13:27.293Z,7.30
2018-05-11T12:15:54.795Z,8.77
2018-05-11T12:18:22.248Z,8.30
2018-05-11T12:20:50.324Z,9.60
2018-05-11T12:23:18.048Z,9.93
2018-05-11T12:25:45.569Z,8.07
2018-05-11T12:28:13.125Z,8.83
2018-05-11T12:30:41.434Z,9.07
2018-05-11T12:33:08.974Z,9.10
2018-05-11T12:35:36.493Z,10.07
2018-05-11T12:38:04.172Z,10.10
2018-05-11T12:40:31.798Z,8.50
2018-05-11T12:42:59.772Z,10.40
2018-05-11T12:45:27.315Z,10.27
2018-05-11T12:47:54.831Z,9.37
2018-05-11T12:50:22.328Z,9.50
2018-05-11T12:52:49.814Z,11.47
2018-05-11T12:55:17.297Z,10.47
2018-05-11T12:57:45.538Z,10.33
2018-05-11T13:00:13.017Z,10.63
2018-05-11T13:02:40.483Z,9.60
2018-05-11T13:05:07.973Z,9.97
2018-05-11T13:07:35.453Z,11.00
2018-05-11T13:10:02.935Z,9.30
2018-05-11T13:12:37.085Z,11.13
2018-05-11T13:15:05.380Z,9.30
2018-05-11T13:17:33.604Z,10.20
2018-05-11T13:20:01.084Z,11.10
2018-05-11T13:22:28.571Z,10.90
2018-05-11T13:24:56.050Z,10.13
2018-05-11T13:27:23.541Z,10.83
2018-05-11T13:29:51.008Z,10.00
2018-05-11T13:32:18.462Z,10.23
2018-05-11T13:34:45.923Z,10.67
2018-05-11T13:37:13.380Z,9.97
2018-05-11T13:39:40.830Z,10.67
2018-05-11T13:42:08.364Z,11.17
2018-05-11T13:44:35.923Z,11.27
2018-05-11T13:47:03.402Z,8.83
2018-05-11T13:49:30.861Z,10.63
2018-05-11T13:51:58.339Z,10.47
2018-05-11T13:54:26.564Z,11.00
2018-05-11T13:56:54.028Z,9.97
2018-05-11T13:59:21.518Z,10.13
2018-05-11T14:01:48.976Z,9.73
2018-05-11T14:04:16.428Z,9.00
2018-05-11T14:06:49.769Z,11.53
2018-05-11T14:09:17.270Z,10.33
2018-05-11T14:11:44.739Z,10.63
2018-05-11T14:14:12.205Z,10.70
2018-05-11T14:16:40.653Z,11.90
2018-05-11T14:19:08.945Z,10.73
2018-05-11T14:21:36.879Z,10.30
2018-05-11T14:24:04.613Z,10.53
2018-05-11T14:26:32.367Z,9.77
2018-05-11T14:29:00.094Z,10.10
2018-05-11T14:31:27.960Z,11.03
2018-05-11T14:33:55.649Z,9.70
2018-05-11T14:36:23.987Z,8.80
2018-05-11T14:38:51.906Z,9.10
2018-05-11T14:41:19.653Z,8.70
2018-05-11T14:43:47.315Z,8.73
2018-05-11T14:46:15.314Z,8.53
2018-05-11T14:48:43.023Z,8.77
2018-05-11T14:51:12.258Z,10.20
2018-05-11T14:53:40.971Z,9.27
2018-05-11T14:56:09.439Z,9.43
2018-05-11T14:58:40.754Z,8.60
2018-05-11T15:01:09.241Z,8.23
2018-05-11T15:03:36.849Z,8.97
2018-05-11T15:06:04.585Z,9.23
2018-05-11T15:08:32.480Z,8.10
2018-05-11T15:11:00.797Z,7.73
2018-05-11T15:13:32.378Z,7.40
2018-05-11T15:16:00.112Z,8.57
2018-05-11T15:18:32.521Z,7.70
2018-05-11T15:21:02.021Z,10.10
2018-05-11T15:23:31.342Z,10.30
2018-05-11T15:25:59.052Z,9.47
2018-05-11T15:28:27.623Z,9.10
2018-05-11T15:30:55.312Z,8.60
2018-05-11T15:33:23.707Z,10.00
2018-05-11T15:35:52.219Z,9.03
2018-05-11T15:38:19.930Z,8.90
2018-05-11T15:40:49.245Z,8.83
2018-05-11T15:43:17.794Z,8.90
2018-05-11T15:45:46.531Z,8.30
2018-05-11T15:48:15.001Z,7.60
2018-05-11T15:50:43.770Z,9.13
2018-05-11T15:53:13.469Z,9.37
2018-05-11T15:55:41.218Z,8.03
2018-05-11T15:58:08.936Z,9.00
2018-05-11T16:00:43.173Z,8.97
2018-05-11T16:03:10.802Z,8.80
2018-05-11T16:05:39.326Z,9.00
2018-05-11T16:08:07.086Z,8.23
2018-05-11T16:10:40.834Z,9.10
2018-05-11T16:13:08.644Z,10.20
2018-05-11T16:15:36.310Z,8.90
2018-05-11T16:18:04.002Z,8.63
2018-05-11T16:20:39.675Z,10.77
2018-05-11T16:23:08.157Z,9.63
2018-05-11T16:25:36.416Z,10.30
2018-05-11T16:28:03.879Z,15.47
2018-05-11T16:30:31.329Z,10.83
2018-05-11T16:32:58.792Z,11.43
2018-05-11T16:35:26.235Z,10.10
2018-05-11T16:37:53.700Z,9.47
2018-05-11T16:40:21.139Z,10.47
2018-05-11T16:42:48.600Z,9.90
2018-05-11T16:45:16.060Z,9.33
2018-05-11T16:47:43.521Z,10.20
2018-05-11T16:50:11.962Z,9.70
2018-05-11T16:52:39.418Z,9.07
2018-05-11T16:55:06.865Z,8.90
2018-05-11T16:57:35.092Z,8.30
2018-05-11T17:00:02.544Z,9.03
2018-05-11T17:02:30.005Z,8.13
2018-05-11T17:04:57.447Z,9.30
2018-05-11T17:07:24.912Z,8.80
2018-05-11T17:09:52.355Z,8.80
2018-05-11T17:12:19.845Z,9.03
2018-05-11T17:14:47.300Z,9.43
2018-05-11T17:17:14.757Z,8.73
2018-05-11T17:19:42.201Z,8.40
2018-05-11T17:22:09.713Z,8.73
2018-05-11T17:24:37.156Z,8.20
2018-05-11T17:27:05.377Z,9.73
2018-05-11T17:29:32.827Z,9.80
2018-05-11T17:32:00.289Z,7.60
2018-05-11T17:34:27.732Z,8.63
2018-05-11T17:36:55.192Z,9.10
2018-05-11T17:39:22.642Z,10.00
2018-05-11T17:41:50.121Z,10.10
2018-05-11T17:44:17.564Z,9.70
2018-05-11T17:46:45.028Z,8.20
2018-05-11T17:49:12.495Z,8.27
2018-05-11T17:51:39.950Z,7.90
2018-05-11T17:54:07.406Z,7.83
2018-05-11T17:56:34.864Z,9.60
2018-05-11T17:59:02.337Z,9.80
2018-05-11T18:01:29.783Z,8.00
2018-05-11T18:03:57.236Z,7.60
2018-05-11T18:06:24.692Z,13.57
2018-05-11T18:08:52.139Z,9.10
2018-05-11T18:11:19.604Z,8.37
2018-05-11T18:13:47.044Z,7.43
2018-05-11T18:16:14.497Z,9.17
2018-05-11T18:18:41.954Z,9.03
2018-05-11T18:21:09.397Z,7.53
2018-05-11T18:23:36.855Z,8.27
2018-05-11T18:26:04.295Z,8.63
2018-05-11T18:28:32.524Z,8.20
2018-05-11T18:30:59.986Z,7.93
2018-05-11T18:33:27.417Z,7.27
2018-05-11T18:35:55.624Z,7.20
2018-05-11T18:38:23.081Z,8.00
2018-05-11T18:40:50.523Z,8.80
2018-05-11T18:43:17.993Z,8.60
2018-05-11T18:45:45.447Z,8.83
2018-05-11T18:48:12.923Z,8.80
2018-05-11T18:50:40.371Z,10.10
2018-05-11T18:53:08.114Z,13.93
2018-05-11T18:55:35.277Z,9.03
2018-05-11T18:58:02.720Z,8.13
2018-05-11T19:00:30.163Z,7.80
2018-05-11T19:02:57.640Z,7.27
2018-05-11T19:05:25.106Z,8.47
2018-05-11T19:07:52.569Z,8.27
2018-05-11T19:10:20.051Z,8.33
2018-05-11T19:12:47.504Z,8.50
2018-05-11T19:15:14.958Z,8.27
2018-05-11T19:17:42.426Z,8.10
2018-05-11T19:20:10.640Z,7.33
2018-05-11T19:22:38.101Z,7.70
2018-05-11T19:25:05.559Z,8.10
2018-05-11T19:27:33.024Z,8.47
2018-05-11T19:30:00.465Z,7.67
2018-05-11T19:32:27.927Z,7.53
2018-05-11T19:34:55.390Z,7.50
2018-05-11T19:37:22.829Z,7.40
2018-05-11T19:39:50.292Z,7.90
2018-05-11T19:42:17.824Z,7.73
2018-05-11T19:44:47.860Z,7.40
2018-05-11T19:47:15.319Z,7.40
2018-05-11T19:49:42.804Z,7.80
2018-05-11T19:52:10.252Z,7.00
2018-05-11T19:54:37.728Z,7.83
2018-05-11T19:57:05.183Z,8.37
2018-05-11T19:59:32.645Z,6.43
2018-05-11T20:02:00.106Z,7.90
2018-05-11T20:04:27.572Z,19.50
2018-05-11T20:06:55.085Z,8.10
2018-05-11T20:09:22.549Z,8.17
2018-05-11T20:11:49.993Z,7.77
2018-05-11T20:14:17.477Z,9.73
2018-05-11T20:16:44.920Z,9.23
2018-05-11T20:19:12.388Z,8.47
2018-05-11T20:21:39.841Z,8.70
2018-05-11T20:24:07.292Z,8.77
2018-05-11T20:26:34.740Z,8.23
2018-05-11T20:29:02.959Z,7.77
2018-05-11T20:31:30.399Z,7.53
2018-05-11T20:33:57.856Z,7.80
2018-05-11T20:36:25.296Z,8.63
2018-05-11T20:38:52.747Z,8.80
2018-05-11T20:41:20.197Z,9.93
2018-05-11T20:43:47.648Z,9.13
2018-05-11T20:46:15.096Z,8.60
2018-05-11T20:48:42.543Z,8.73
2018-05-11T20:51:09.983Z,9.03
2018-05-11T20:53:38.205Z,9.73
2018-05-11T20:56:05.644Z,9.80
2018-05-11T20:58:33.091Z,9.83
2018-05-11T21:01:00.539Z,10.53
2018-05-11T21:03:28.856Z,11.00
2018-05-11T21:05:56.220Z,12.33
2018-05-11T21:08:23.675Z,12.53
2018-05-11T21:10:51.143Z,12.13
2018-05-11T21:13:18.588Z,11.23
2018-05-11T21:15:46.035Z,11.27
2018-05-11T21:18:13.487Z,13.90
2018-05-11T21:20:42.587Z,12.40
2018-05-11T21:23:11.689Z,11.57
2018-05-11T21:25:40.790Z,11.13
2018-05-11T21:28:09.935Z,12.83
2018-05-11T21:30:38.999Z,12.77
2018-05-11T21:33:08.090Z,13.80
2018-05-11T21:35:37.195Z,14.63
2018-05-11T21:38:06.307Z,13.30
2018-05-11T21:40:35.407Z,12.13
2018-05-11T21:43:04.499Z,14.00
2018-05-11T21:45:33.603Z,14.67
2018-05-11T21:48:02.702Z,14.33
2018-05-11T21:50:31.806Z,13.80
2018-05-11T21:53:00.893Z,16.20
2018-05-11T21:55:30.000Z,12.50
2018-05-11T21:57:59.094Z,13.50
2018-05-11T22:00:28.203Z,12.77
2018-05-11T22:02:57.299Z,13.03
2018-05-11T22:05:26.409Z,14.20
2018-05-11T22:07:55.498Z,13.90
2018-05-11T22:10:24.630Z,12.53
2018-05-11T22:12:53.727Z,12.80
2018-05-11T22:15:22.830Z,13.50
2018-05-11T22:17:51.931Z,12.90
2018-05-11T22:20:21.034Z,12.10
2018-05-11T22:22:50.126Z,12.60
2018-05-11T22:25:19.226Z,11.83
2018-05-11T22:27:48.414Z,12.00
2018-05-11T22:30:17.517Z,12.20
2018-05-11T22:32:46.618Z,13.30
2018-05-11T22:35:15.718Z,12.10
2018-05-11T22:37:44.818Z,12.40
2018-05-11T22:40:13.931Z,12.20
2018-05-11T22:42:43.014Z,12.70
2018-05-11T22:45:12.115Z,12.43
2018-05-11T22:47:41.210Z,10.73
2018-05-11T22:50:10.319Z,12.00
2018-05-11T22:52:39.419Z,12.33
2018-05-11T22:55:08.526Z,12.13
2018-05-11T22:57:37.622Z,11.70
2018-05-11T23:00:06.731Z,12.10
2018-05-11T23:02:35.835Z,13.17
2018-05-11T23:05:04.929Z,12.80
2018-05-11T23:07:34.030Z,12.17
2018-05-11T23:10:03.217Z,12.20
2018-05-11T23:12:32.235Z,10.90
2018-05-11T23:15:01.351Z,12.50
2018-05-11T23:17:30.514Z,11.37
2018-05-11T23:19:59.566Z,10.93
2018-05-11T23:22:28.659Z,11.80
2018-05-11T23:24:57.770Z,12.13
2018-05-11T23:27:26.876Z,10.60
2018-05-11T23:29:55.987Z,10.90
2018-05-11T23:32:25.074Z,11.50
2018-05-11T23:34:54.178Z,11.70
2018-05-11T23:37:23.277Z,11.73
2018-05-11T23:39:52.378Z,10.50
2018-05-11T23:42:21.478Z,11.80
2018-05-11T23:44:50.577Z,12.10
2018-05-11T23:47:19.674Z,11.07
2018-05-11T23:49:48.869Z,11.20
2018-05-11T23:52:17.894Z,12.40
2018-05-11T23:54:46.991Z,11.37
2018-05-11T23:57:16.095Z,12.30
2018-05-11T23:59:45.207Z,12.60
